sensor_id;sensor_type;location;lat;lon;timestamp;temperature;humidity
3134;DHT22;1577;49.912;10.924;2023-05-29T00:00:26;14.60;79.40
3134;DHT22;1577;49.912;10.924;2023-05-29T00:02:52;14.60;80.20
3134;DHT22;1577;49.912;10.924;2023-05-29T00:05:18;14.50;80.40
3134;DHT22;1577;49.912;10.924;2023-05-29T00:07:44;14.40;81.20
3134;DHT22;1577;49.912;10.924;2023-05-29T00:10:10;14.40;81.20
3134;DHT22;1577;49.912;10.924;2023-05-29T00:12:36;14.30;81.30
3134;DHT22;1577;49.912;10.924;2023-05-29T00:15:02;14.20;81.80
3134;DHT22;1577;49.912;10.924;2023-05-29T00:17:31;14.20;83.20
3134;DHT22;1577;49.912;10.924;2023-05-29T00:20:00;14.20;83.40
3134;DHT22;1577;49.912;10.924;2023-05-29T00:22:27;14.20;83.70
3134;DHT22;1577;49.912;10.924;2023-05-29T00:24:52;14.20;84.10
3134;DHT22;1577;49.912;10.924;2023-05-29T00:27:18;14.00;84.60
3134;DHT22;1577;49.912;10.924;2023-05-29T00:29:44;14.00;85.20
3134;DHT22;1577;49.912;10.924;2023-05-29T00:32:10;14.00;85.70
3134;DHT22;1577;49.912;10.924;2023-05-29T00:34:35;13.80;86.50
3134;DHT22;1577;49.912;10.924;2023-05-29T00:37:01;13.80;86.90
3134;DHT22;1577;49.912;10.924;2023-05-29T00:39:28;13.80;86.90
3134;DHT22;1577;49.912;10.924;2023-05-29T00:41:54;13.80;87.10
3134;DHT22;1577;49.912;10.924;2023-05-29T00:44:20;13.80;87.40
3134;DHT22;1577;49.912;10.924;2023-05-29T00:46:48;13.70;87.50
3134;DHT22;1577;49.912;10.924;2023-05-29T00:49:14;13.60;88.40
3134;DHT22;1577;49.912;10.924;2023-05-29T00:51:42;13.60;89.50
3134;DHT22;1577;49.912;10.924;2023-05-29T00:54:11;13.50;89.30
3134;DHT22;1577;49.912;10.924;2023-05-29T00:56:41;13.50;89.50
3134;DHT22;1577;49.912;10.924;2023-05-29T00:59:11;13.50;89.90
3134;DHT22;1577;49.912;10.924;2023-05-29T01:01:37;13.50;90.10
3134;DHT22;1577;49.912;10.924;2023-05-29T01:04:05;13.40;90.30
3134;DHT22;1577;49.912;10.924;2023-05-29T01:06:35;13.40;90.40
3134;DHT22;1577;49.912;10.924;2023-05-29T01:09:01;13.40;90.50
3134;DHT22;1577;49.912;10.924;2023-05-29T01:11:50;13.50;90.50
3134;DHT22;1577;49.912;10.924;2023-05-29T01:17:10;13.20;91.10
3134;DHT22;1577;49.912;10.924;2023-05-29T01:24:50;13.10;91.40
3134;DHT22;1577;49.912;10.924;2023-05-29T01:27:21;12.90;91.70
3134;DHT22;1577;49.912;10.924;2023-05-29T01:29:51;12.90;91.80
3134;DHT22;1577;49.912;10.924;2023-05-29T01:32:17;12.80;92.50
3134;DHT22;1577;49.912;10.924;2023-05-29T01:34:43;12.80;92.80
3134;DHT22;1577;49.912;10.924;2023-05-29T01:37:09;12.80;92.60
3134;DHT22;1577;49.912;10.924;2023-05-29T01:39:35;12.90;92.50
3134;DHT22;1577;49.912;10.924;2023-05-29T01:42:02;12.90;92.60
3134;DHT22;1577;49.912;10.924;2023-05-29T01:44:28;12.90;92.90
3134;DHT22;1577;49.912;10.924;2023-05-29T01:46:55;12.90;92.50
3134;DHT22;1577;49.912;10.924;2023-05-29T01:49:23;12.80;92.80
3134;DHT22;1577;49.912;10.924;2023-05-29T01:51:49;12.70;92.80
3134;DHT22;1577;49.912;10.924;2023-05-29T01:54:15;12.70;93.00
3134;DHT22;1577;49.912;10.924;2023-05-29T01:56:41;12.60;93.00
3134;DHT22;1577;49.912;10.924;2023-05-29T01:59:08;12.60;93.30
3134;DHT22;1577;49.912;10.924;2023-05-29T02:01:34;12.60;93.30
3134;DHT22;1577;49.912;10.924;2023-05-29T02:03:59;12.50;93.80
3134;DHT22;1577;49.912;10.924;2023-05-29T02:06:25;12.50;94.00
3134;DHT22;1577;49.912;10.924;2023-05-29T02:08:51;12.50;93.90
3134;DHT22;1577;49.912;10.924;2023-05-29T02:11:16;12.50;94.10
3134;DHT22;1577;49.912;10.924;2023-05-29T02:13:42;12.40;94.20
3134;DHT22;1577;49.912;10.924;2023-05-29T02:16:07;12.40;94.40
3134;DHT22;1577;49.912;10.924;2023-05-29T02:18:33;12.40;94.60
3134;DHT22;1577;49.912;10.924;2023-05-29T02:21:00;12.30;94.70
3134;DHT22;1577;49.912;10.924;2023-05-29T02:23:25;12.20;94.90
3134;DHT22;1577;49.912;10.924;2023-05-29T02:25:52;12.20;95.10
3134;DHT22;1577;49.912;10.924;2023-05-29T02:28:17;12.20;95.20
3134;DHT22;1577;49.912;10.924;2023-05-29T02:30:43;12.10;95.10
3134;DHT22;1577;49.912;10.924;2023-05-29T02:33:09;12.10;95.40
3134;DHT22;1577;49.912;10.924;2023-05-29T02:35:34;12.10;95.50
3134;DHT22;1577;49.912;10.924;2023-05-29T02:38:00;12.00;95.40
3134;DHT22;1577;49.912;10.924;2023-05-29T02:40:25;12.00;95.60
3134;DHT22;1577;49.912;10.924;2023-05-29T02:42:51;12.00;95.70
3134;DHT22;1577;49.912;10.924;2023-05-29T02:45:17;11.90;95.60
3134;DHT22;1577;49.912;10.924;2023-05-29T02:47:42;11.90;95.90
3134;DHT22;1577;49.912;10.924;2023-05-29T02:50:08;11.90;95.90
3134;DHT22;1577;49.912;10.924;2023-05-29T02:52:35;11.80;96.00
3134;DHT22;1577;49.912;10.924;2023-05-29T02:55:02;11.70;96.10
3134;DHT22;1577;49.912;10.924;2023-05-29T02:57:28;11.80;96.30
3134;DHT22;1577;49.912;10.924;2023-05-29T02:59:53;11.70;96.20
3134;DHT22;1577;49.912;10.924;2023-05-29T03:02:20;11.70;96.40
3134;DHT22;1577;49.912;10.924;2023-05-29T03:04:46;11.50;96.70
3134;DHT22;1577;49.912;10.924;2023-05-29T03:07:11;11.50;97.10
3134;DHT22;1577;49.912;10.924;2023-05-29T03:09:38;11.60;97.30
3134;DHT22;1577;49.912;10.924;2023-05-29T03:12:03;11.60;97.30
3134;DHT22;1577;49.912;10.924;2023-05-29T03:14:29;11.60;97.40
3134;DHT22;1577;49.912;10.924;2023-05-29T03:16:55;11.60;97.30
3134;DHT22;1577;49.912;10.924;2023-05-29T03:19:21;11.60;97.70
3134;DHT22;1577;49.912;10.924;2023-05-29T03:21:47;11.60;98.00
3134;DHT22;1577;49.912;10.924;2023-05-29T03:24:12;11.70;98.20
3134;DHT22;1577;49.912;10.924;2023-05-29T03:26:41;11.60;98.30
3134;DHT22;1577;49.912;10.924;2023-05-29T03:29:07;11.70;98.70
3134;DHT22;1577;49.912;10.924;2023-05-29T03:31:33;11.60;98.60
3134;DHT22;1577;49.912;10.924;2023-05-29T03:33:59;11.60;98.70
3134;DHT22;1577;49.912;10.924;2023-05-29T03:36:24;11.60;98.80
3134;DHT22;1577;49.912;10.924;2023-05-29T03:38:50;11.60;99.00
3134;DHT22;1577;49.912;10.924;2023-05-29T03:41:15;11.60;99.20
3134;DHT22;1577;49.912;10.924;2023-05-29T03:43:41;11.70;99.20
3134;DHT22;1577;49.912;10.924;2023-05-29T03:46:07;11.70;99.60
3134;DHT22;1577;49.912;10.924;2023-05-29T03:48:32;11.70;99.20
3134;DHT22;1577;49.912;10.924;2023-05-29T03:50:58;11.70;99.20
3134;DHT22;1577;49.912;10.924;2023-05-29T03:53:23;11.60;99.10
3134;DHT22;1577;49.912;10.924;2023-05-29T03:55:49;11.60;99.30
3134;DHT22;1577;49.912;10.924;2023-05-29T03:58:14;11.60;99.20
3134;DHT22;1577;49.912;10.924;2023-05-29T04:00:41;11.60;99.20
3134;DHT22;1577;49.912;10.924;2023-05-29T04:03:06;11.60;99.70
3134;DHT22;1577;49.912;10.924;2023-05-29T04:05:32;11.60;99.90
3134;DHT22;1577;49.912;10.924;2023-05-29T04:07:57;11.70;99.90
3134;DHT22;1577;49.912;10.924;2023-05-29T04:10:23;11.80;99.90
3134;DHT22;1577;49.912;10.924;2023-05-29T04:12:50;11.80;99.90
3134;DHT22;1577;49.912;10.924;2023-05-29T04:15:16;11.80;99.90
3134;DHT22;1577;49.912;10.924;2023-05-29T04:17:41;11.80;99.90
3134;DHT22;1577;49.912;10.924;2023-05-29T04:20:07;11.70;99.90
3134;DHT22;1577;49.912;10.924;2023-05-29T04:22:37;11.80;99.90
3134;DHT22;1577;49.912;10.924;2023-05-29T04:25:04;12.00;99.90
3134;DHT22;1577;49.912;10.924;2023-05-29T04:27:31;12.10;99.90
3134;DHT22;1577;49.912;10.924;2023-05-29T04:29:57;12.20;99.90
3134;DHT22;1577;49.912;10.924;2023-05-29T04:32:23;12.20;99.90
3134;DHT22;1577;49.912;10.924;2023-05-29T04:34:49;12.20;99.80
3134;DHT22;1577;49.912;10.924;2023-05-29T04:37:15;12.30;99.90
3134;DHT22;1577;49.912;10.924;2023-05-29T04:39:41;12.30;99.90
3134;DHT22;1577;49.912;10.924;2023-05-29T04:42:06;12.40;99.90
3134;DHT22;1577;49.912;10.924;2023-05-29T04:44:32;12.40;99.90
3134;DHT22;1577;49.912;10.924;2023-05-29T04:46:58;12.40;99.90
3134;DHT22;1577;49.912;10.924;2023-05-29T04:49:23;12.30;99.90
3134;DHT22;1577;49.912;10.924;2023-05-29T04:51:49;12.50;99.90
3134;DHT22;1577;49.912;10.924;2023-05-29T04:54:18;12.70;99.80
3134;DHT22;1577;49.912;10.924;2023-05-29T04:56:45;12.80;99.50
3134;DHT22;1577;49.912;10.924;2023-05-29T04:59:11;12.90;99.20
3134;DHT22;1577;49.912;10.924;2023-05-29T05:01:37;13.00;99.10
3134;DHT22;1577;49.912;10.924;2023-05-29T05:04:03;13.10;98.80
3134;DHT22;1577;49.912;10.924;2023-05-29T05:06:28;13.10;98.90
3134;DHT22;1577;49.912;10.924;2023-05-29T05:08:54;13.10;98.80
3134;DHT22;1577;49.912;10.924;2023-05-29T05:11:22;13.20;98.80
3134;DHT22;1577;49.912;10.924;2023-05-29T05:13:48;13.20;98.70
3134;DHT22;1577;49.912;10.924;2023-05-29T05:16:13;13.20;99.10
3134;DHT22;1577;49.912;10.924;2023-05-29T05:18:39;13.20;99.10
3134;DHT22;1577;49.912;10.924;2023-05-29T05:21:04;13.20;99.30
3134;DHT22;1577;49.912;10.924;2023-05-29T05:23:31;13.20;99.10
3134;DHT22;1577;49.912;10.924;2023-05-29T05:25:56;13.30;99.20
3134;DHT22;1577;49.912;10.924;2023-05-29T05:28:22;13.40;99.20
3134;DHT22;1577;49.912;10.924;2023-05-29T05:30:48;13.40;99.20
3134;DHT22;1577;49.912;10.924;2023-05-29T05:33:13;13.50;99.40
3134;DHT22;1577;49.912;10.924;2023-05-29T05:35:39;13.60;99.10
3134;DHT22;1577;49.912;10.924;2023-05-29T05:38:05;13.70;98.90
3134;DHT22;1577;49.912;10.924;2023-05-29T05:40:31;13.80;99.00
3134;DHT22;1577;49.912;10.924;2023-05-29T05:42:57;13.90;98.70
3134;DHT22;1577;49.912;10.924;2023-05-29T05:45:23;14.00;98.70
3134;DHT22;1577;49.912;10.924;2023-05-29T05:47:48;14.00;98.00
3134;DHT22;1577;49.912;10.924;2023-05-29T05:50:14;14.10;97.80
3134;DHT22;1577;49.912;10.924;2023-05-29T05:52:40;14.20;97.70
3134;DHT22;1577;49.912;10.924;2023-05-29T05:55:06;14.30;97.80
3134;DHT22;1577;49.912;10.924;2023-05-29T05:57:33;14.40;97.70
3134;DHT22;1577;49.912;10.924;2023-05-29T05:59:59;14.50;97.50
3134;DHT22;1577;49.912;10.924;2023-05-29T06:02:25;14.60;97.60
3134;DHT22;1577;49.912;10.924;2023-05-29T06:04:51;14.70;97.50
3134;DHT22;1577;49.912;10.924;2023-05-29T06:07:17;14.80;97.40
3134;DHT22;1577;49.912;10.924;2023-05-29T06:09:43;14.80;97.40
3134;DHT22;1577;49.912;10.924;2023-05-29T06:12:09;14.90;97.40
3134;DHT22;1577;49.912;10.924;2023-05-29T06:14:34;15.10;97.00
3134;DHT22;1577;49.912;10.924;2023-05-29T06:17:00;15.20;96.60
3134;DHT22;1577;49.912;10.924;2023-05-29T06:19:26;15.30;96.70
3134;DHT22;1577;49.912;10.924;2023-05-29T06:21:52;15.40;96.60
3134;DHT22;1577;49.912;10.924;2023-05-29T06:24:17;15.50;96.70
3134;DHT22;1577;49.912;10.924;2023-05-29T06:26:43;15.60;96.80
3134;DHT22;1577;49.912;10.924;2023-05-29T06:29:08;15.70;96.40
3134;DHT22;1577;49.912;10.924;2023-05-29T06:31:34;15.90;96.40
3134;DHT22;1577;49.912;10.924;2023-05-29T06:34:00;16.00;96.30
3134;DHT22;1577;49.912;10.924;2023-05-29T06:36:25;16.10;96.20
3134;DHT22;1577;49.912;10.924;2023-05-29T06:38:51;16.60;96.50
3134;DHT22;1577;49.912;10.924;2023-05-29T06:41:17;17.30;95.90
3134;DHT22;1577;49.912;10.924;2023-05-29T06:43:43;18.00;95.00
3134;DHT22;1577;49.912;10.924;2023-05-29T06:46:10;18.90;94.20
3134;DHT22;1577;49.912;10.924;2023-05-29T06:48:35;19.80;94.60
3134;DHT22;1577;49.912;10.924;2023-05-29T06:51:02;21.10;93.40
3134;DHT22;1577;49.912;10.924;2023-05-29T06:53:38;22.60;91.60
3134;DHT22;1577;49.912;10.924;2023-05-29T06:56:04;24.20;87.50
3134;DHT22;1577;49.912;10.924;2023-05-29T06:58:31;25.60;83.40
3134;DHT22;1577;49.912;10.924;2023-05-29T07:00:57;27.00;80.40
3134;DHT22;1577;49.912;10.924;2023-05-29T07:03:23;28.00;73.60
3134;DHT22;1577;49.912;10.924;2023-05-29T07:05:49;28.80;70.90
3134;DHT22;1577;49.912;10.924;2023-05-29T07:08:14;29.70;67.00
3134;DHT22;1577;49.912;10.924;2023-05-29T07:10:40;30.40;64.40
3134;DHT22;1577;49.912;10.924;2023-05-29T07:13:06;31.10;62.60
3134;DHT22;1577;49.912;10.924;2023-05-29T07:15:32;31.80;60.20
3134;DHT22;1577;49.912;10.924;2023-05-29T07:17:58;32.30;58.40
3134;DHT22;1577;49.912;10.924;2023-05-29T07:20:24;32.90;57.80
3134;DHT22;1577;49.912;10.924;2023-05-29T07:22:49;33.20;55.00
3134;DHT22;1577;49.912;10.924;2023-05-29T07:25:15;33.50;54.40
3134;DHT22;1577;49.912;10.924;2023-05-29T07:27:41;33.80;54.30
3134;DHT22;1577;49.912;10.924;2023-05-29T07:30:07;33.90;53.10
3134;DHT22;1577;49.912;10.924;2023-05-29T07:32:33;34.00;52.50
3134;DHT22;1577;49.912;10.924;2023-05-29T07:34:59;33.60;52.20
3134;DHT22;1577;49.912;10.924;2023-05-29T07:37:25;32.90;52.40
3134;DHT22;1577;49.912;10.924;2023-05-29T07:39:54;32.70;53.40
3134;DHT22;1577;49.912;10.924;2023-05-29T07:42:19;33.00;52.80
3134;DHT22;1577;49.912;10.924;2023-05-29T07:44:45;33.30;51.80
3134;DHT22;1577;49.912;10.924;2023-05-29T07:47:11;33.40;51.10
3134;DHT22;1577;49.912;10.924;2023-05-29T07:49:37;33.70;49.70
3134;DHT22;1577;49.912;10.924;2023-05-29T07:52:03;33.20;49.60
3134;DHT22;1577;49.912;10.924;2023-05-29T07:54:30;33.20;51.10
3134;DHT22;1577;49.912;10.924;2023-05-29T07:57:00;33.20;49.80
3134;DHT22;1577;49.912;10.924;2023-05-29T07:59:28;33.50;50.40
3134;DHT22;1577;49.912;10.924;2023-05-29T08:01:54;33.70;48.70
3134;DHT22;1577;49.912;10.924;2023-05-29T08:04:24;33.70;48.70
3134;DHT22;1577;49.912;10.924;2023-05-29T08:06:50;33.80;49.90
3134;DHT22;1577;49.912;10.924;2023-05-29T08:09:16;34.10;48.40
3134;DHT22;1577;49.912;10.924;2023-05-29T08:11:42;34.40;47.60
3134;DHT22;1577;49.912;10.924;2023-05-29T08:14:10;34.30;46.00
3134;DHT22;1577;49.912;10.924;2023-05-29T08:16:36;33.10;43.40
3134;DHT22;1577;49.912;10.924;2023-05-29T08:19:02;32.40;43.70
3134;DHT22;1577;49.912;10.924;2023-05-29T08:21:30;31.70;42.20
3134;DHT22;1577;49.912;10.924;2023-05-29T08:23:57;30.90;42.80
3134;DHT22;1577;49.912;10.924;2023-05-29T08:26:23;30.40;42.30
3134;DHT22;1577;49.912;10.924;2023-05-29T08:28:48;30.10;43.50
3134;DHT22;1577;49.912;10.924;2023-05-29T08:31:14;30.20;44.00
3134;DHT22;1577;49.912;10.924;2023-05-29T08:33:39;30.30;43.80
3134;DHT22;1577;49.912;10.924;2023-05-29T08:36:05;30.10;43.20
3134;DHT22;1577;49.912;10.924;2023-05-29T08:38:31;29.70;43.90
3134;DHT22;1577;49.912;10.924;2023-05-29T08:40:57;29.40;44.70
3134;DHT22;1577;49.912;10.924;2023-05-29T08:43:30;29.40;43.90
3134;DHT22;1577;49.912;10.924;2023-05-29T08:46:00;29.40;44.40
3134;DHT22;1577;49.912;10.924;2023-05-29T08:48:27;29.40;44.60
3134;DHT22;1577;49.912;10.924;2023-05-29T08:50:55;29.20;43.60
3134;DHT22;1577;49.912;10.924;2023-05-29T08:53:25;29.10;44.60
3134;DHT22;1577;49.912;10.924;2023-05-29T08:55:52;29.00;44.30
3134;DHT22;1577;49.912;10.924;2023-05-29T08:58:21;28.60;45.00
3134;DHT22;1577;49.912;10.924;2023-05-29T09:00:47;28.40;45.40
3134;DHT22;1577;49.912;10.924;2023-05-29T09:03:14;28.20;45.70
3134;DHT22;1577;49.912;10.924;2023-05-29T09:05:40;28.20;46.00
3134;DHT22;1577;49.912;10.924;2023-05-29T09:08:10;28.40;46.10
3134;DHT22;1577;49.912;10.924;2023-05-29T09:10:39;28.70;46.50
3134;DHT22;1577;49.912;10.924;2023-05-29T09:13:05;28.70;45.50
3134;DHT22;1577;49.912;10.924;2023-05-29T09:15:31;28.70;46.10
3134;DHT22;1577;49.912;10.924;2023-05-29T09:17:57;28.60;46.30
3134;DHT22;1577;49.912;10.924;2023-05-29T09:20:24;28.40;45.70
3134;DHT22;1577;49.912;10.924;2023-05-29T09:22:58;28.30;46.60
3134;DHT22;1577;49.912;10.924;2023-05-29T09:25:25;28.40;46.40
3134;DHT22;1577;49.912;10.924;2023-05-29T09:28:08;28.30;46.70
3134;DHT22;1577;49.912;10.924;2023-05-29T09:30:43;28.00;47.50
3134;DHT22;1577;49.912;10.924;2023-05-29T09:33:11;27.90;48.30
3134;DHT22;1577;49.912;10.924;2023-05-29T09:35:39;28.20;48.20
3134;DHT22;1577;49.912;10.924;2023-05-29T09:38:05;28.30;48.30
3134;DHT22;1577;49.912;10.924;2023-05-29T09:40:39;28.30;47.70
3134;DHT22;1577;49.912;10.924;2023-05-29T09:43:15;28.30;47.20
3134;DHT22;1577;49.912;10.924;2023-05-29T09:45:47;28.10;47.40
3134;DHT22;1577;49.912;10.924;2023-05-29T09:48:15;28.00;47.60
3134;DHT22;1577;49.912;10.924;2023-05-29T09:50:41;28.00;48.20
3134;DHT22;1577;49.912;10.924;2023-05-29T09:55:47;28.10;48.60
3134;DHT22;1577;49.912;10.924;2023-05-29T09:58:20;28.20;48.00
3134;DHT22;1577;49.912;10.924;2023-05-29T10:00:46;28.00;48.00
3134;DHT22;1577;49.912;10.924;2023-05-29T10:03:13;28.00;48.10
3134;DHT22;1577;49.912;10.924;2023-05-29T10:05:43;27.80;47.10
3134;DHT22;1577;49.912;10.924;2023-05-29T10:08:11;27.70;47.20
3134;DHT22;1577;49.912;10.924;2023-05-29T10:10:40;27.40;47.20
3134;DHT22;1577;49.912;10.924;2023-05-29T10:13:11;26.70;47.70
3134;DHT22;1577;49.912;10.924;2023-05-29T10:15:45;26.40;47.70
3134;DHT22;1577;49.912;10.924;2023-05-29T10:18:21;25.90;48.70
3134;DHT22;1577;49.912;10.924;2023-05-29T10:20:54;25.70;48.90
3134;DHT22;1577;49.912;10.924;2023-05-29T10:23:24;25.50;47.80
3134;DHT22;1577;49.912;10.924;2023-05-29T10:25:52;25.50;48.30
3134;DHT22;1577;49.912;10.924;2023-05-29T10:28:20;25.40;48.50
3134;DHT22;1577;49.912;10.924;2023-05-29T10:30:52;25.20;49.60
3134;DHT22;1577;49.912;10.924;2023-05-29T10:33:43;25.00;49.50
3134;DHT22;1577;49.912;10.924;2023-05-29T10:36:18;25.00;50.80
3134;DHT22;1577;49.912;10.924;2023-05-29T10:38:45;25.00;50.40
3134;DHT22;1577;49.912;10.924;2023-05-29T10:43:56;25.00;49.90
3134;DHT22;1577;49.912;10.924;2023-05-29T10:49:21;25.10;49.80
3134;DHT22;1577;49.912;10.924;2023-05-29T10:51:47;24.90;48.80
3134;DHT22;1577;49.912;10.924;2023-05-29T10:54:22;24.80;48.50
3134;DHT22;1577;49.912;10.924;2023-05-29T10:57:01;24.60;48.70
3134;DHT22;1577;49.912;10.924;2023-05-29T10:59:26;24.40;49.00
3134;DHT22;1577;49.912;10.924;2023-05-29T11:01:54;24.30;49.00
3134;DHT22;1577;49.912;10.924;2023-05-29T11:06:48;24.30;49.10
3134;DHT22;1577;49.912;10.924;2023-05-29T11:09:28;24.30;49.10
3134;DHT22;1577;49.912;10.924;2023-05-29T11:12:32;24.20;49.10
3134;DHT22;1577;49.912;10.924;2023-05-29T11:15:05;24.20;49.20
3134;DHT22;1577;49.912;10.924;2023-05-29T11:20:28;24.10;49.50
3134;DHT22;1577;49.912;10.924;2023-05-29T11:23:00;24.10;48.90
3134;DHT22;1577;49.912;10.924;2023-05-29T11:25:27;24.10;49.00
3134;DHT22;1577;49.912;10.924;2023-05-29T11:27:53;24.10;49.70
3134;DHT22;1577;49.912;10.924;2023-05-29T11:30:19;24.20;49.90
3134;DHT22;1577;49.912;10.924;2023-05-29T11:32:46;24.30;50.00
3134;DHT22;1577;49.912;10.924;2023-05-29T11:35:13;24.30;50.40
3134;DHT22;1577;49.912;10.924;2023-05-29T11:37:43;24.40;50.00
3134;DHT22;1577;49.912;10.924;2023-05-29T11:40:12;24.30;49.60
3134;DHT22;1577;49.912;10.924;2023-05-29T11:42:42;24.30;49.60
3134;DHT22;1577;49.912;10.924;2023-05-29T11:45:18;24.30;49.00
3134;DHT22;1577;49.912;10.924;2023-05-29T11:50:28;24.30;50.40
3134;DHT22;1577;49.912;10.924;2023-05-29T11:52:55;24.50;48.90
3134;DHT22;1577;49.912;10.924;2023-05-29T11:55:22;24.50;48.90
3134;DHT22;1577;49.912;10.924;2023-05-29T11:57:55;24.40;48.50
3134;DHT22;1577;49.912;10.924;2023-05-29T12:00:21;24.40;48.80
3134;DHT22;1577;49.912;10.924;2023-05-29T12:02:48;24.50;49.30
3134;DHT22;1577;49.912;10.924;2023-05-29T12:05:16;24.50;50.30
3134;DHT22;1577;49.912;10.924;2023-05-29T12:07:51;24.50;51.50
3134;DHT22;1577;49.912;10.924;2023-05-29T12:10:20;24.60;51.30
3134;DHT22;1577;49.912;10.924;2023-05-29T12:12:52;24.60;50.60
3134;DHT22;1577;49.912;10.924;2023-05-29T12:15:18;24.60;49.40
3134;DHT22;1577;49.912;10.924;2023-05-29T12:17:48;24.50;48.60
3134;DHT22;1577;49.912;10.924;2023-05-29T12:20:14;24.40;50.00
3134;DHT22;1577;49.912;10.924;2023-05-29T12:22:41;24.50;49.90
3134;DHT22;1577;49.912;10.924;2023-05-29T12:25:10;24.40;49.80
3134;DHT22;1577;49.912;10.924;2023-05-29T12:27:38;24.30;50.20
3134;DHT22;1577;49.912;10.924;2023-05-29T12:30:12;24.30;50.90
3134;DHT22;1577;49.912;10.924;2023-05-29T12:32:43;24.30;51.00
3134;DHT22;1577;49.912;10.924;2023-05-29T12:37:49;24.30;51.30
3134;DHT22;1577;49.912;10.924;2023-05-29T12:40:26;24.30;51.40
3134;DHT22;1577;49.912;10.924;2023-05-29T12:43:13;24.30;50.90
3134;DHT22;1577;49.912;10.924;2023-05-29T12:45:39;24.20;50.40
3134;DHT22;1577;49.912;10.924;2023-05-29T12:48:06;24.30;51.00
3134;DHT22;1577;49.912;10.924;2023-05-29T12:50:34;24.30;49.70
3134;DHT22;1577;49.912;10.924;2023-05-29T12:53:07;24.40;49.50
3134;DHT22;1577;49.912;10.924;2023-05-29T12:55:43;24.40;49.40
3134;DHT22;1577;49.912;10.924;2023-05-29T12:58:11;24.40;49.10
3134;DHT22;1577;49.912;10.924;2023-05-29T13:00:38;24.40;49.50
3134;DHT22;1577;49.912;10.924;2023-05-29T13:03:04;24.40;50.50
3134;DHT22;1577;49.912;10.924;2023-05-29T13:05:34;24.40;50.30
3134;DHT22;1577;49.912;10.924;2023-05-29T13:08:00;24.40;50.60
3134;DHT22;1577;49.912;10.924;2023-05-29T13:10:26;24.40;50.50
3134;DHT22;1577;49.912;10.924;2023-05-29T13:12:54;24.40;49.40
3134;DHT22;1577;49.912;10.924;2023-05-29T13:15:22;24.40;50.20
3134;DHT22;1577;49.912;10.924;2023-05-29T13:17:48;24.40;50.40
3134;DHT22;1577;49.912;10.924;2023-05-29T13:20:14;24.40;50.10
3134;DHT22;1577;49.912;10.924;2023-05-29T13:22:44;24.40;49.00
3134;DHT22;1577;49.912;10.924;2023-05-29T13:25:12;24.40;49.60
3134;DHT22;1577;49.912;10.924;2023-05-29T13:27:42;24.50;49.30
3134;DHT22;1577;49.912;10.924;2023-05-29T13:30:09;24.50;49.10
3134;DHT22;1577;49.912;10.924;2023-05-29T13:32:35;24.50;48.90
3134;DHT22;1577;49.912;10.924;2023-05-29T13:35:01;24.50;49.70
3134;DHT22;1577;49.912;10.924;2023-05-29T13:37:27;24.50;48.90
3134;DHT22;1577;49.912;10.924;2023-05-29T13:39:53;24.50;50.10
3134;DHT22;1577;49.912;10.924;2023-05-29T13:42:19;24.50;48.70
3134;DHT22;1577;49.912;10.924;2023-05-29T13:44:48;24.40;47.90
3134;DHT22;1577;49.912;10.924;2023-05-29T13:47:14;24.40;48.10
3134;DHT22;1577;49.912;10.924;2023-05-29T13:49:40;24.40;48.10
3134;DHT22;1577;49.912;10.924;2023-05-29T13:52:06;24.40;49.10
3134;DHT22;1577;49.912;10.924;2023-05-29T13:54:32;24.40;49.50
3134;DHT22;1577;49.912;10.924;2023-05-29T13:57:04;24.40;47.80
3134;DHT22;1577;49.912;10.924;2023-05-29T13:59:31;24.40;48.30
3134;DHT22;1577;49.912;10.924;2023-05-29T14:01:57;24.40;49.50
3134;DHT22;1577;49.912;10.924;2023-05-29T14:04:23;24.40;50.00
3134;DHT22;1577;49.912;10.924;2023-05-29T14:06:49;24.40;49.80
3134;DHT22;1577;49.912;10.924;2023-05-29T14:09:18;24.40;50.90
3134;DHT22;1577;49.912;10.924;2023-05-29T14:11:59;24.40;50.00
3134;DHT22;1577;49.912;10.924;2023-05-29T14:14:26;24.50;50.40
3134;DHT22;1577;49.912;10.924;2023-05-29T14:16:54;24.40;50.00
3134;DHT22;1577;49.912;10.924;2023-05-29T14:19:20;24.40;49.90
3134;DHT22;1577;49.912;10.924;2023-05-29T14:21:46;24.40;49.30
3134;DHT22;1577;49.912;10.924;2023-05-29T14:24:12;24.30;49.60
3134;DHT22;1577;49.912;10.924;2023-05-29T14:26:38;24.30;49.90
3134;DHT22;1577;49.912;10.924;2023-05-29T14:29:04;24.30;48.80
3134;DHT22;1577;49.912;10.924;2023-05-29T14:31:31;24.30;48.20
3134;DHT22;1577;49.912;10.924;2023-05-29T14:33:57;24.30;48.40
3134;DHT22;1577;49.912;10.924;2023-05-29T14:36:22;24.30;48.30
3134;DHT22;1577;49.912;10.924;2023-05-29T14:38:48;24.30;49.00
3134;DHT22;1577;49.912;10.924;2023-05-29T14:41:15;24.40;49.80
3134;DHT22;1577;49.912;10.924;2023-05-29T14:43:42;24.40;49.50
3134;DHT22;1577;49.912;10.924;2023-05-29T14:46:08;24.40;49.50
3134;DHT22;1577;49.912;10.924;2023-05-29T14:48:37;24.40;49.40
3134;DHT22;1577;49.912;10.924;2023-05-29T14:51:02;24.30;49.70
3134;DHT22;1577;49.912;10.924;2023-05-29T14:53:28;24.40;50.00
3134;DHT22;1577;49.912;10.924;2023-05-29T14:55:56;24.40;49.90
3134;DHT22;1577;49.912;10.924;2023-05-29T14:58:22;24.50;50.40
3134;DHT22;1577;49.912;10.924;2023-05-29T15:00:47;24.60;49.60
3134;DHT22;1577;49.912;10.924;2023-05-29T15:03:13;24.60;49.10
3134;DHT22;1577;49.912;10.924;2023-05-29T15:05:39;24.60;49.00
3134;DHT22;1577;49.912;10.924;2023-05-29T15:08:04;24.60;49.50
3134;DHT22;1577;49.912;10.924;2023-05-29T15:10:30;24.60;49.90
3134;DHT22;1577;49.912;10.924;2023-05-29T15:12:56;24.70;49.00
3134;DHT22;1577;49.912;10.924;2023-05-29T15:15:28;24.80;47.40
3134;DHT22;1577;49.912;10.924;2023-05-29T15:17:54;24.90;48.80
3134;DHT22;1577;49.912;10.924;2023-05-29T15:20:23;24.90;49.40
3134;DHT22;1577;49.912;10.924;2023-05-29T15:22:49;24.80;47.30
3134;DHT22;1577;49.912;10.924;2023-05-29T15:25:15;24.80;48.50
3134;DHT22;1577;49.912;10.924;2023-05-29T15:27:41;24.60;49.40
3134;DHT22;1577;49.912;10.924;2023-05-29T15:30:11;24.60;49.20
3134;DHT22;1577;49.912;10.924;2023-05-29T15:32:38;24.60;49.40
3134;DHT22;1577;49.912;10.924;2023-05-29T15:35:05;24.50;49.50
3134;DHT22;1577;49.912;10.924;2023-05-29T15:37:30;24.50;50.10
3134;DHT22;1577;49.912;10.924;2023-05-29T15:39:56;24.40;50.20
3134;DHT22;1577;49.912;10.924;2023-05-29T15:42:25;24.40;50.60
3134;DHT22;1577;49.912;10.924;2023-05-29T15:44:50;24.20;50.40
3134;DHT22;1577;49.912;10.924;2023-05-29T15:47:16;24.20;50.30
3134;DHT22;1577;49.912;10.924;2023-05-29T15:49:41;24.20;50.70
3134;DHT22;1577;49.912;10.924;2023-05-29T15:52:07;24.20;51.30
3134;DHT22;1577;49.912;10.924;2023-05-29T15:54:33;24.20;50.80
3134;DHT22;1577;49.912;10.924;2023-05-29T15:56:58;24.10;50.60
3134;DHT22;1577;49.912;10.924;2023-05-29T15:59:28;24.00;50.70
3134;DHT22;1577;49.912;10.924;2023-05-29T16:01:53;24.00;51.00
3134;DHT22;1577;49.912;10.924;2023-05-29T16:04:19;23.90;50.80
3134;DHT22;1577;49.912;10.924;2023-05-29T16:06:45;23.90;51.80
3134;DHT22;1577;49.912;10.924;2023-05-29T16:09:10;23.90;51.80
3134;DHT22;1577;49.912;10.924;2023-05-29T16:11:37;23.90;52.60